Time,TemperatureF,DewpointF,PressureIn,WindDirection,WindDirectionDegrees,WindSpeedMPH,WindSpeedGustMPH,Humidity,HourlyPrecipIn,Conditions,Clouds,dailyrainin,SoftwareType,DateUTC
2013-11-03 00:13:00,34.0,30.0,30.15,NW,307,0.0,0.0,85,0.00,,,0.00,,2013-11-03 05:13:00,
2013-11-03 00:23:00,35.0,31.0,30.15,NW,307,0.0,2.0,85,0.00,,,0.00,,2013-11-03 05:23:00,
2013-11-03 00:43:00,34.0,30.0,30.15,NW,307,0.0,1.0,84,0.00,,,0.00,,2013-11-03 05:43:00,
2013-11-03 00:53:00,33.0,29.0,30.15,NW,307,0.0,1.0,86,0.00,,,0.00,,2013-11-03 05:53:00,
2013-11-03 01:12:00,33.0,30.0,30.15,NW,307,0.0,0.0,87,0.00,,,0.00,,2013-11-03 06:12:00,
2013-11-03 01:23:00,33.0,30.0,30.17,NW,307,0.0,1.0,88,0.00,,,0.00,,2013-11-03 06:23:00,
2013-11-03 01:43:00,33.0,30.0,30.17,NW,306,0.0,0.0,88,0.00,,,0.00,,2013-11-03 06:43:00,
2013-11-03 01:53:00,33.0,30.0,30.18,WNW,290,0.0,1.0,88,0.00,,,0.00,,2013-11-03 06:53:00,
2013-11-03 01:11:00,33.0,30.0,30.18,WNW,290,0.0,1.0,88,0.00,,,0.00,,2013-11-03 07:11:00,
2013-11-03 01:22:00,33.0,30.0,30.19,WNW,290,0.0,0.0,88,0.00,,,0.00,,2013-11-03 07:22:00,
2013-11-03 01:42:00,32.0,29.0,30.19,WNW,290,0.0,0.0,87,0.00,,,0.00,,2013-11-03 07:42:00,
2013-11-03 01:52:00,32.0,29.0,30.20,WNW,290,0.0,0.0,88,0.00,,,0.00,,2013-11-03 07:52:00,
2013-11-03 02:11:00,32.0,29.0,30.20,WNW,290,0.0,0.0,89,0.00,,,0.00,,2013-11-03 08:11:00,
2013-11-03 02:21:00,31.0,28.0,30.21,WNW,290,0.0,0.0,89,0.00,,,0.00,,2013-11-03 08:21:00,
2013-11-03 02:42:00,31.0,28.0,30.21,WNW,290,0.0,0.0,90,0.00,,,0.00,,2013-11-03 08:42:00,
2013-11-03 02:52:00,31.0,28.0,30.21,WNW,290,0.0,0.0,90,0.00,,,0.00,,2013-11-03 08:52:00,
2013-11-03 03:12:00,31.0,28.0,30.22,WNW,290,0.0,0.0,90,0.00,,,0.00,,2013-11-03 09:12:00,
2013-11-03 03:22:00,31.0,28.0,30.22,WNW,290,0.0,2.0,90,0.00,,,0.00,,2013-11-03 09:22:00,
2013-11-03 03:53:00,30.0,27.0,30.22,WNW,290,0.0,0.0,90,0.00,,,0.00,,2013-11-03 09:53:00,
2013-11-03 04:13:00,29.0,26.0,30.23,WNW,290,0.0,0.0,89,0.00,,,0.00,,2013-11-03 10:13:00,
2013-11-03 04:23:00,28.0,25.0,30.23,WNW,290,0.0,0.0,89,0.00,,,0.00,,2013-11-03 10:23:00,
2013-11-03 04:42:00,28.0,25.0,30.24,WNW,290,0.0,0.0,90,0.00,,,0.00,,2013-11-03 10:42:00,
2013-11-03 04:53:00,27.0,24.0,30.24,WNW,290,0.0,0.0,90,0.00,,,0.00,,2013-11-03 10:53:00,
2013-11-03 05:12:00,27.0,25.0,30.24,WNW,290,0.0,0.0,91,0.00,,,0.00,,2013-11-03 11:12:00,
2013-11-03 05:22:00,27.0,25.0,30.25,WNW,290,0.0,0.0,91,0.00,,,0.00,,2013-11-03 11:22:00,
2013-11-03 05:43:00,28.0,26.0,30.25,WNW,290,0.0,0.0,92,0.00,,,0.00,,2013-11-03 11:43:00,
2013-11-03 05:52:00,27.0,25.0,30.26,WNW,290,0.0,0.0,91,0.00,,,0.00,,2013-11-03 11:52:00,
2013-11-03 06:12:00,27.0,25.0,30.26,WNW,290,0.0,0.0,91,0.00,,,0.00,,2013-11-03 12:12:00,
2013-11-03 06:22:00,26.0,24.0,30.27,WNW,290,0.0,0.0,91,0.00,,,0.00,,2013-11-03 12:22:00,
2013-11-03 06:42:00,26.0,24.0,30.27,WNW,290,0.0,0.0,91,0.00,,,0.00,,2013-11-03 12:42:00,
2013-11-03 06:52:00,26.0,24.0,30.28,WNW,290,0.0,0.0,92,0.00,,,0.00,,2013-11-03 12:52:00,
2013-11-03 07:12:00,26.0,24.0,30.28,WNW,290,0.0,0.0,92,0.00,,,0.00,,2013-11-03 13:12:00,
2013-11-03 07:21:00,29.0,27.0,30.28,WNW,290,0.0,0.0,93,0.00,,,0.00,,2013-11-03 13:21:00,
2013-11-03 07:42:00,30.0,28.0,30.29,WNW,290,0.0,0.0,93,0.00,,,0.00,,2013-11-03 13:42:00,
2013-11-03 07:52:00,31.0,29.0,30.30,WNW,290,0.0,0.0,93,0.01,,,0.01,,2013-11-03 13:52:00,
2013-11-03 08:12:00,33.0,31.0,30.31,WNW,290,0.0,0.0,93,0.01,,,0.01,,2013-11-03 14:12:00,
2013-11-03 08:22:00,36.0,34.0,30.31,ENE,61,0.0,2.0,91,0.01,,,0.01,,2013-11-03 14:22:00,
2013-11-03 08:32:00,36.0,34.0,30.31,ENE,61,0.0,2.0,91,0.01,,,0.01,,2013-11-03 14:32:00,
2013-11-03 08:42:00,36.0,34.0,30.31,ENE,61,0.0,2.0,91,0.01,,,0.01,,2013-11-03 14:42:00,
2013-11-03 08:52:00,39.0,36.0,30.30,ESE,121,1.0,5.0,90,0.00,,,0.01,,2013-11-03 14:52:00,
2013-11-03 09:11:00,41.0,38.0,30.30,SE,142,2.0,5.0,88,0.00,,,0.01,,2013-11-03 15:11:00,
2013-11-03 09:22:00,41.0,38.0,30.30,SE,142,2.0,5.0,88,0.00,,,0.01,,2013-11-03 15:22:00,
2013-11-03 09:43:00,42.0,38.0,30.30,ESE,119,3.0,5.0,84,0.00,,,0.01,,2013-11-03 15:43:00,
2013-11-03 09:53:00,44.0,39.0,30.31,SE,146,2.0,5.0,82,0.00,,,0.01,,2013-11-03 15:53:00,
2013-11-03 10:13:00,44.0,38.0,30.31,ESE,123,3.0,7.0,79,0.00,,,0.01,,2013-11-03 16:13:00,
2013-11-03 10:23:00,46.0,39.0,30.31,ESE,121,3.0,6.0,75,0.00,,,0.01,,2013-11-03 16:23:00,
2013-11-03 10:43:00,47.0,39.0,30.31,SSE,149,3.0,7.0,73,0.00,,,0.01,,2013-11-03 16:43:00,
2013-11-03 10:53:00,48.0,39.0,30.31,SE,132,2.0,7.0,71,0.00,,,0.01,,2013-11-03 16:53:00,
2013-11-03 11:13:00,48.0,38.0,30.31,SE,128,3.0,8.0,69,0.00,,,0.01,,2013-11-03 17:13:00,
2013-11-03 11:23:00,49.0,38.0,30.31,South,172,4.0,8.0,65,0.00,,,0.01,,2013-11-03 17:23:00,
2013-11-03 11:43:00,49.0,39.0,30.30,SE,132,2.0,7.0,67,0.00,,,0.01,,2013-11-03 17:43:00,
2013-11-03 11:52:00,50.0,38.0,30.30,SE,132,4.0,8.0,62,0.00,,,0.01,,2013-11-03 17:52:00,
2013-11-03 12:11:00,50.0,38.0,30.29,SSW,198,3.0,9.0,63,0.00,,,0.01,,2013-11-03 18:11:00,
2013-11-03 12:23:00,50.0,37.0,30.28,SSW,197,4.0,9.0,60,0.00,,,0.01,,2013-11-03 18:23:00,
2013-11-03 12:42:00,51.0,38.0,30.27,SSE,153,6.0,11.0,60,0.00,,,0.01,,2013-11-03 18:42:00,
2013-11-03 12:52:00,51.0,37.0,30.26,SSW,194,4.0,10.0,59,0.00,,,0.01,,2013-11-03 18:52:00,
2013-11-03 13:11:00,51.0,37.0,30.26,East,94,4.0,9.0,59,0.00,,,0.01,,2013-11-03 19:11:00,
2013-11-03 13:22:00,51.0,37.0,30.25,SE,128,4.0,11.0,58,0.00,,,0.01,,2013-11-03 19:22:00,
2013-11-03 13:42:00,51.0,36.0,30.25,SE,141,4.0,8.0,57,0.00,,,0.01,,2013-11-03 19:42:00,
2013-11-03 13:53:00,52.0,38.0,30.25,ESE,123,3.0,9.0,58,0.00,,,0.01,,2013-11-03 19:53:00,
2013-11-03 14:11:00,52.0,36.0,30.25,ESE,116,5.0,8.0,55,0.00,,,0.01,,2013-11-03 20:11:00,
2013-11-03 14:22:00,52.0,38.0,30.24,SSE,150,4.0,9.0,58,0.00,,,0.01,,2013-11-03 20:22:00,
2013-11-03 14:42:00,52.0,37.0,30.23,SSE,166,3.0,10.0,56,0.00,,,0.01,,2013-11-03 20:42:00,
2013-11-03 14:52:00,52.0,36.0,30.23,SE,140,5.0,13.0,55,0.00,,,0.01,,2013-11-03 20:52:00,
2013-11-03 15:12:00,52.0,37.0,30.22,SSE,161,3.0,9.0,57,0.00,,,0.01,,2013-11-03 21:12:00,
2013-11-03 15:22:00,52.0,36.0,30.22,SSE,167,4.0,11.0,55,0.00,,,0.01,,2013-11-03 21:22:00,
2013-11-03 15:43:00,52.0,36.0,30.22,ESE,113,4.0,10.0,55,0.00,,,0.01,,2013-11-03 21:43:00,
2013-11-03 15:54:00,52.0,37.0,30.23,SSE,153,3.0,10.0,57,0.00,,,0.01,,2013-11-03 21:54:00,
2013-11-03 16:12:00,51.0,36.0,30.22,SSE,153,3.0,9.0,56,0.00,,,0.01,,2013-11-03 22:12:00,
2013-11-03 16:22:00,50.0,35.0,30.22,SSE,155,4.0,9.0,56,0.00,,,0.01,,2013-11-03 22:22:00,
2013-11-03 16:43:00,49.0,34.0,30.22,SE,144,4.0,8.0,57,0.00,,,0.01,,2013-11-03 22:43:00,
2013-11-03 16:52:00,48.0,36.0,30.22,SSE,163,1.0,9.0,62,0.00,,,0.01,,2013-11-03 22:52:00,
2013-11-03 17:23:00,46.0,36.0,30.20,ESE,114,0.0,2.0,67,0.00,,,0.01,,2013-11-03 23:23:00,
2013-11-03 17:42:00,44.0,35.0,30.20,ESE,110,0.0,3.0,71,0.00,,,0.01,,2013-11-03 23:42:00,
2013-11-03 17:53:00,42.0,34.0,30.20,ESE,111,0.0,2.0,74,0.00,,,0.01,,2013-11-03 23:53:00,
2013-11-03 18:11:00,41.0,34.0,30.21,ESE,111,0.0,1.0,77,0.00,,,0.01,,2013-11-04 00:11:00,
2013-11-03 18:22:00,41.0,35.0,30.21,ESE,111,0.0,0.0,78,0.00,,,0.01,,2013-11-04 00:22:00,
2013-11-03 18:42:00,41.0,35.0,30.22,ESE,117,0.0,2.0,78,0.00,,,0.01,,2013-11-04 00:42:00,
2013-11-03 18:52:00,40.0,34.0,30.23,ESE,117,0.0,0.0,79,0.00,,,0.01,,2013-11-04 00:52:00,
2013-11-03 19:22:00,39.0,34.0,30.23,SE,127,0.0,2.0,82,0.00,,,0.01,,2013-11-04 01:22:00,
2013-11-03 19:42:00,39.0,34.0,30.22,SE,141,0.0,3.0,83,0.00,,,0.01,,2013-11-04 01:42:00,
2013-11-03 19:52:00,40.0,35.0,30.22,ESE,122,1.0,4.0,81,0.00,,,0.01,,2013-11-04 01:52:00,
2013-11-03 20:12:00,40.0,35.0,30.23,South,172,1.0,2.0,82,0.00,,,0.01,,2013-11-04 02:12:00,
2013-11-03 20:22:00,41.0,35.0,30.22,SE,140,3.0,6.0,80,0.00,,,0.01,,2013-11-04 02:22:00,
2013-11-03 20:42:00,42.0,36.0,30.22,SE,142,3.0,6.0,79,0.00,,,0.01,,2013-11-04 02:42:00,
2013-11-03 20:52:00,42.0,36.0,30.21,SSE,149,3.0,7.0,79,0.00,,,0.01,,2013-11-04 02:52:00,
2013-11-03 21:11:00,42.0,36.0,30.21,SE,130,3.0,6.0,78,0.00,,,0.01,,2013-11-04 03:11:00,
2013-11-03 21:21:00,42.0,35.0,30.22,SE,138,3.0,6.0,77,0.00,,,0.01,,2013-11-04 03:21:00,
2013-11-03 21:44:00,43.0,36.0,30.23,SE,136,2.0,8.0,75,0.00,,,0.01,,2013-11-04 03:44:00,
2013-11-03 21:54:00,43.0,36.0,30.22,SSE,155,2.0,6.0,75,0.00,,,0.01,,2013-11-04 03:54:00,
2013-11-03 22:13:00,43.0,35.0,30.22,South,181,3.0,7.0,73,0.00,,,0.01,,2013-11-04 04:13:00,
2013-11-03 22:24:00,43.0,35.0,30.23,South,169,2.0,6.0,74,0.00,,,0.01,,2013-11-04 04:24:00,
2013-11-03 22:34:00,43.0,35.0,30.23,South,169,2.0,6.0,74,0.00,,,0.01,,2013-11-04 04:34:00,
2013-11-03 22:43:00,43.0,35.0,30.23,South,169,2.0,6.0,74,0.00,,,0.01,,2013-11-04 04:43:00,
2013-11-03 22:52:00,43.0,36.0,30.22,SE,146,3.0,7.0,75,0.00,,,0.01,,2013-11-04 04:52:00,
2013-11-03 23:13:00,43.0,36.0,30.22,SSE,154,2.0,6.0,76,0.00,,,0.01,,2013-11-04 05:13:00,
2013-11-03 23:23:00,43.0,35.0,30.22,SSE,157,3.0,10.0,73,0.00,,,0.01,,2013-11-04 05:23:00,
2013-11-03 23:44:00,44.0,36.0,30.21,SSE,157,3.0,8.0,72,0.00,,,0.01,,2013-11-04 05:44:00,
2013-11-03 23:53:00,43.0,35.0,30.22,SSE,158,2.0,5.0,74,0.00,,,0.01,,2013-11-04 05:53:00,